x

Buoy A01 - Mass. Bay/stellwagen (44029) Weather Station

5:04pm - Thu 22nd Jun 2017 All times are EDT. -4 hours from GMT.

  • Wind
    13mph, 16mph gusts
  • Sea Temp 63°f
  • Air Temp 66°f
  • Sea Pressure 1011.6mb
  • Buoy A01 - Mass. Bay/stellwagen
  • Buoy A01 - Mass. Bay/stellwagen

More Historic Weather Station data

Upgrade to MSW Pro to gain access to the past 30 days of data for over 8000 Wavebouys and Weather Stations around the globe.

Join Pro

Comparision Forecast

View Surf forecast
   
Thu 06/22 5:04pm  -   -  13 16 mph 1011.6mb 63f 66f
4:04pm 1.3ft 7s 11 13 mph 1011.7mb 63f 66f
3:04pm 1ft 7s 11 13 mph 1012mb 63f 66f
2:04pm  -   -  9 11 mph 1012.6mb 62f 66f
1:04pm 1ft 7s 7 9 mph 1012.8mb 62f 65f
12:04pm 0.7ft  -  9 9 mph 1013.4mb 62f 64f
11:04am 1ft 7s 7 7 mph 1013.3mb 61f 64f
10:04am 1ft 7s 7 9 mph 1014.2mb 61f 63f
9:04am 1ft 7s 7 7 mph 1014.5mb 60f 63f
8:04am 1.6ft 7s 9 9 mph 1014.3mb 59f 60f
7:04am 1.6ft 6s 7 9 mph 1014mb 59f 61f
6:04am 1.6ft 7s 9 11 mph 1013.5mb 59f 60f
5:04am  -   -  9 11 mph 1012.9mb 60f 60f
4:04am 1.3ft 8s 9 9 mph 1012.6mb 60f 62f
3:04am 1.3ft 7s 7 9 mph 1012.1mb 60f 62f
2:04am 1ft 7s 9 11 mph 1012.2mb 60f 63f
1:04am 1ft 8s 7 9 mph 1011.8mb 60f 62f
12:04am 1ft 7s 7 9 mph 1011.5mb 61f 63f
Wed 06/21 11:04pm 1.3ft 6s 4 7 mph 1011.1mb 60f 63f
10:04pm 1.3ft 8s 4 7 mph 1010.8mb 58f 63f
9:04pm 1.3ft 6s 7 7 mph 1010.1mb 59f 65f
8:04pm 1.6ft 7s 11 13 mph 1009.3mb 59f 67f
7:04pm 1.6ft 7s 11 13 mph 1009mb 59f 68f
6:04pm 1.6ft 8s 9 9 mph 1008.5mb 59f 67f
5:04pm 1.6ft 8s 9 11 mph 1008.2mb 58f 66f
4:04pm 1.6ft 7s 11 13 mph 1008mb 56f 67f
3:04pm 2ft 3s 11 13 mph 1008.3mb 56f 66f
2:04pm 1.3ft 7s 9 11 mph 1008.6mb 56f 64f
1:04pm 1.3ft 7s 9 11 mph 1009.1mb 57f 64f
12:04pm 1.6ft 8s 4 7 mph 1009.3mb 56f 64f
11:04am 1.6ft 6s 7 9 mph 1010mb 56f 63f
10:04am 1.6ft 8s 7 9 mph 1010.2mb 56f 61f
9:04am 2ft 6s 7 7 mph 1010.7mb 56f 59f
8:04am 2.5ft 8s 4 4 mph 1011.1mb 55f 59f
7:04am 2ft 6s 9 9 mph 1011.3mb 55f 59f
6:04am 1.6ft 7s 9 11 mph 1011.5mb 55f 60f
5:04am 1.6ft 8s 13 13 mph 1011.4mb 54f 60f
4:04am 1.6ft 7s 7 9 mph 1011.3mb 54f 59f
3:04am 1.3ft 8s 9 11 mph 1011.5mb 55f 59f
2:04am 1.3ft 6s 9 9 mph 1011.6mb 55f 61f
1:04am  -   -  9 9 mph 1011.9mb 55f 61f
12:04am 1.3ft 6s 7 7 mph 1011.9mb 55f 60f
Tue 06/20 11:04pm  -   -  7 9 mph 1011.8mb 55f 62f
10:04pm 1.6ft 8s 9 9 mph 1011.4mb 56f 64f
9:04pm 2ft 3s 9 9 mph 1010.8mb 56f 63f
8:04pm  -   -  9 9 mph 1010mb 57f 63f
7:04pm  -   -  13 13 mph 1009.1mb 57f 65f
6:04pm 2.5ft 5s 9 11 mph 1008.6mb 57f 65f
5:04pm 2.5ft 6s 11 13 mph 1008.5mb 57f 64f
4:04pm 3.5ft 7s 11 13 mph 1008.3mb 57f 63f
3:04pm 3.5ft 4s 13 16 mph 1008.2mb 57f 62f
2:04pm 4ft 7s 18 20 mph 1008.5mb 57f 63f
1:04pm 2.5ft 7s 16 20 mph 1009.1mb 57f 62f
12:04pm 2.5ft 8s 11 11 mph 1009.4mb 57f 62f
11:04am  -   -  9 11 mph 1009.5mb 57f 61f
10:04am  -   -  11 11 mph 1009.6mb 57f 61f
9:04am 3ft 6s 11 13 mph 1009.6mb 56f 61f
8:04am  -   -  13 16 mph 1009.4mb 56f 60f
7:04am 2ft 6s 13 16 mph 1009.7mb 56f 60f
6:04am  -   -  11 11 mph 1009.4mb 56f 60f
5:04am 2ft 7s 11 13 mph 1009.1mb 55f 60f
4:04am  -   -  13 16 mph 1009.7mb 55f 60f
3:04am 2ft 6s 11 13 mph 1009.8mb 56f 60f
2:04am 2.5ft 4s 11 13 mph 1009.4mb 57f 61f
1:04am  -   -  7 9 mph 1009.8mb 57f 59f
12:04am 4.5ft 5s 13 16 mph 1009.9mb 57f 61f
Mon 06/19 11:04pm 5.5ft 5s 20 22 mph 1009.4mb 57f 63f
10:04pm 5ft 4s 18 20 mph 1010.2mb 58f 64f
9:04pm  -   -  16 18 mph 1009.9mb 59f 65f
8:04pm  -   -  18 18 mph 1009.2mb 59f 66f
7:04pm 4.5ft 4s 18 20 mph 1008.8mb 60f 66f
6:04pm  -   -  18 20 mph 1008.6mb 59f 66f
5:04pm 4.5ft 5s 16 16 mph 1008.5mb 60f 65f
4:04pm 3.5ft 8s 16 18 mph 1009.1mb 60f 65f
3:04pm 3.5ft 7s 18 22 mph 1008.8mb 60f 65f
2:04pm 3ft 8s 9 11 mph 1009.5mb 60f 63f
1:04pm 3.5ft 8s 11 13 mph 1010.1mb 59f 62f
12:04pm 3.5ft 7s 13 18 mph 1010.2mb 58f 62f
11:04am 3.5ft 5s 11 13 mph 1010.5mb 58f 63f
10:04am 3.5ft 4s 9 11 mph 1010.5mb 57f 62f
9:04am 3.5ft 7s 13 13 mph 1010.5mb 57f 62f
8:04am 3.5ft 4s 16 18 mph 1009.9mb 57f 63f
7:04am 2.5ft 6s 16 18 mph 1009.9mb 57f 62f
6:04am 3ft 8s 11 13 mph 1009.9mb 57f 62f
5:04am 3.5ft 6s 16 16 mph 1009.2mb 57f 62f
4:04am 3ft 9s 11 13 mph 1009.3mb 58f 62f
3:04am 3.5ft 8s 11 13 mph 1009.7mb 59f 62f
2:04am 3.5ft 8s 11 13 mph 1009.6mb 59f 62f
1:04am 4.5ft 4s 16 18 mph 1009.7mb 58f 62f
12:04am 5ft 4s 16 18 mph 1009.6mb 58f 62f